createdAt,value
2024-04-23T00:00:39.567Z,1.67
2024-04-23T00:03:06.688Z,1.65
2024-04-23T00:05:33.897Z,1.92
2024-04-23T00:08:01.090Z,1.95
2024-04-23T00:10:31.268Z,1.70
2024-04-23T00:12:58.441Z,1.92
2024-04-23T00:15:25.556Z,1.88
2024-04-23T00:17:52.726Z,2.15
2024-04-23T00:20:19.897Z,2.10
2024-04-23T00:22:47.079Z,2.37
2024-04-23T00:25:14.279Z,2.25
2024-04-23T00:27:44.031Z,2.47
2024-04-23T00:30:11.465Z,1.83
2024-04-23T00:32:38.689Z,1.92
2024-04-23T00:35:05.903Z,1.97
2024-04-23T00:37:33.158Z,1.90
2024-04-23T00:40:00.378Z,2.17
2024-04-23T00:42:27.522Z,2.58
2024-04-23T00:44:57.475Z,2.47
2024-04-23T00:47:24.619Z,2.00
2024-04-23T00:49:51.925Z,2.05
2024-04-23T00:52:19.761Z,2.47
2024-04-23T00:54:48.328Z,1.80
2024-04-23T00:57:15.714Z,1.83
2024-04-23T00:59:43.055Z,2.40
2024-04-23T01:02:12.780Z,2.20
2024-04-23T01:04:40.347Z,2.30
2024-04-23T01:07:07.523Z,2.30
2024-04-23T01:09:34.656Z,2.45
2024-04-23T01:12:02.014Z,2.00
2024-04-23T01:14:31.078Z,2.05
2024-04-23T01:16:58.946Z,2.85
2024-04-23T01:19:32.590Z,2.47
2024-04-23T01:22:02.302Z,2.38
2024-04-23T01:24:32.355Z,2.23
2024-04-23T01:27:02.270Z,1.63
2024-04-23T01:29:30.077Z,1.80
2024-04-23T01:31:58.156Z,2.17
2024-04-23T01:34:26.230Z,2.05
2024-04-23T01:36:53.400Z,2.63
2024-04-23T01:39:20.795Z,2.22
2024-04-23T01:41:47.940Z,2.28
2024-04-23T01:44:17.722Z,2.20
2024-04-23T01:46:45.093Z,2.78
2024-04-23T01:49:12.319Z,2.57
2024-04-23T01:51:42.537Z,2.30
2024-04-23T01:54:09.625Z,2.22
2024-04-23T01:56:36.851Z,2.10
2024-04-23T01:59:04.465Z,2.40
2024-04-23T02:01:36.730Z,2.63
2024-04-23T02:04:04.008Z,2.95
2024-04-23T02:06:31.104Z,2.33
2024-04-23T02:09:03.125Z,2.72
2024-04-23T02:11:31.589Z,2.30
2024-04-23T02:13:58.948Z,2.43
2024-04-23T02:16:26.266Z,2.25
2024-04-23T02:18:56.186Z,2.33
2024-04-23T02:21:23.279Z,2.58
2024-04-23T02:23:50.455Z,2.33
2024-04-23T02:26:17.574Z,2.70
2024-04-23T02:28:45.167Z,2.25
2024-04-23T02:31:12.408Z,2.42
2024-04-23T02:33:39.592Z,2.95
2024-04-23T02:36:09.765Z,2.50
2024-04-23T02:38:36.858Z,2.53
2024-04-23T02:41:04.060Z,2.60
2024-04-23T02:43:31.221Z,2.95
2024-04-23T02:45:58.434Z,2.50
2024-04-23T02:48:25.696Z,3.58
2024-04-23T02:50:52.905Z,2.97
2024-04-23T02:53:22.749Z,3.72
2024-04-23T02:55:49.953Z,2.78
2024-04-23T02:58:17.127Z,3.63
2024-04-23T03:00:44.579Z,2.67
2024-04-23T03:03:11.871Z,2.77
2024-04-23T03:05:39.399Z,3.50
2024-04-23T03:08:06.903Z,2.92
2024-04-23T03:10:36.750Z,3.03
2024-04-23T03:13:03.855Z,3.47
2024-04-23T03:15:31.091Z,3.87
2024-04-23T03:17:58.524Z,2.47
2024-04-23T03:20:25.723Z,2.83
2024-04-23T03:22:52.850Z,2.58
2024-04-23T03:25:19.977Z,2.72
2024-04-23T03:27:49.754Z,2.70
2024-04-23T03:30:17.066Z,3.38
2024-04-23T03:32:44.219Z,3.03
2024-04-23T03:35:11.337Z,2.13
2024-04-23T03:37:38.548Z,2.17
2024-04-23T03:40:06.475Z,1.77
2024-04-23T03:42:33.552Z,3.10
2024-04-23T03:45:03.442Z,2.63
2024-04-23T03:47:32.983Z,1.92
2024-04-23T03:50:00.367Z,3.08
2024-04-23T03:52:28.004Z,2.17
2024-04-23T03:54:55.143Z,2.30
2024-04-23T03:57:24.169Z,2.40
2024-04-23T03:59:51.480Z,1.98
2024-04-23T04:02:40.300Z,1.75
2024-04-23T04:05:26.088Z,1.97
2024-04-23T04:07:53.223Z,2.08
2024-04-23T04:10:20.392Z,1.88
2024-04-23T04:12:48.118Z,1.50
2024-04-23T04:15:15.359Z,2.28
2024-04-23T04:17:45.851Z,1.77
2024-04-23T04:20:13.181Z,1.83
2024-04-23T04:22:40.446Z,2.20
2024-04-23T04:25:07.819Z,1.48
2024-04-23T04:27:35.015Z,1.40
2024-04-23T04:30:02.157Z,1.93
2024-04-23T04:32:29.444Z,1.67
2024-04-23T04:34:59.366Z,1.60
2024-04-23T04:37:32.908Z,1.25
2024-04-23T04:40:00.025Z,2.00
2024-04-23T04:42:27.118Z,1.90
2024-04-23T04:44:54.231Z,1.60
2024-04-23T04:47:21.405Z,1.90
2024-04-23T04:49:48.653Z,1.75
2024-04-23T04:52:18.429Z,1.42
2024-04-23T04:54:45.564Z,1.30
2024-04-23T04:57:12.772Z,1.35
2024-04-23T04:59:39.983Z,1.17
2024-04-23T05:02:07.074Z,1.35
2024-04-23T05:04:35.272Z,2.13
2024-04-23T05:07:02.479Z,1.47
2024-04-23T05:09:33.529Z,1.55
2024-04-23T05:12:00.743Z,1.35
2024-04-23T05:14:27.967Z,1.30
2024-04-23T05:16:55.202Z,1.50
2024-04-23T05:19:22.530Z,1.30
2024-04-23T05:21:49.687Z,1.05
2024-04-23T05:24:16.815Z,1.80
2024-04-23T05:26:46.667Z,1.70
2024-04-23T05:29:14.767Z,1.77
2024-04-23T05:32:11.247Z,3.37
2024-04-23T05:34:38.482Z,2.80
2024-04-23T05:37:05.742Z,3.70
2024-04-23T05:39:32.946Z,1.95
2024-04-23T05:42:02.804Z,1.23
2024-04-23T05:44:30.136Z,1.07
2024-04-23T05:46:57.538Z,1.10
2024-04-23T05:49:43.652Z,1.58
2024-04-23T05:52:30.499Z,1.50
2024-04-23T05:55:17.771Z,1.60
2024-04-23T05:57:52.206Z,1.20
2024-04-23T06:00:20.615Z,1.25
2024-04-23T06:02:47.903Z,1.58
2024-04-23T06:05:27.215Z,1.25
2024-04-23T06:07:55.560Z,1.33
2024-04-23T06:10:23.495Z,1.70
2024-04-23T06:12:53.571Z,1.05
2024-04-23T06:15:20.806Z,1.33
2024-04-23T06:17:48.921Z,0.93
2024-04-23T06:20:23.796Z,0.80
2024-04-23T06:22:54.128Z,8.63
2024-04-23T06:25:25.293Z,4.82
2024-04-23T06:27:55.195Z,0.93
2024-04-23T06:30:26.250Z,0.90
2024-04-23T06:32:53.926Z,1.67
2024-04-23T06:35:21.257Z,0.93
2024-04-23T06:37:48.471Z,1.10
2024-04-23T06:40:19.283Z,2.38
2024-04-23T06:42:46.476Z,1.13
2024-04-23T06:45:16.866Z,1.33
2024-04-23T06:47:44.144Z,1.10
2024-04-23T06:50:11.413Z,1.25
2024-04-23T06:52:38.622Z,1.10
2024-04-23T06:55:06.088Z,1.52
2024-04-23T06:57:36.245Z,1.33
2024-04-23T07:00:03.814Z,1.60
2024-04-23T07:02:33.829Z,1.65
2024-04-23T07:05:01.125Z,1.23
2024-04-23T07:07:28.340Z,1.55
2024-04-23T07:09:58.248Z,1.52
2024-04-23T07:12:25.374Z,1.07
2024-04-23T07:14:52.499Z,1.45
2024-04-23T07:17:19.732Z,1.00
2024-04-23T07:19:51.881Z,1.08
2024-04-23T07:22:19.996Z,1.48
2024-04-23T07:24:47.676Z,1.50
2024-04-23T07:27:14.760Z,1.48
2024-04-23T07:29:42.638Z,3.00
2024-04-23T07:32:12.289Z,1.92
2024-04-23T07:34:39.602Z,1.45
2024-04-23T07:37:09.533Z,1.50
2024-04-23T07:39:36.780Z,1.45
2024-04-23T07:42:04.498Z,1.20
2024-04-23T07:44:31.709Z,1.80
2024-04-23T07:47:01.403Z,1.33
2024-04-23T07:49:28.600Z,1.80
2024-04-23T07:51:55.797Z,1.40
2024-04-23T07:54:25.657Z,1.60
2024-04-23T07:56:53.493Z,1.38
2024-04-23T07:59:21.822Z,1.67
2024-04-23T08:01:49.091Z,1.57
2024-04-23T08:04:16.302Z,1.27
2024-04-23T08:06:43.424Z,1.83
2024-04-23T08:09:10.594Z,1.92
2024-04-23T08:11:41.017Z,1.20
2024-04-23T08:14:08.357Z,1.40
2024-04-23T08:16:36.103Z,1.20
2024-04-23T08:19:03.386Z,1.80
2024-04-23T08:21:30.993Z,1.70
2024-04-23T08:23:58.341Z,1.63
2024-04-23T08:26:25.413Z,1.43
2024-04-23T08:28:55.570Z,1.48
2024-04-23T08:31:22.844Z,1.23
2024-04-23T08:33:50.026Z,1.50
2024-04-23T08:36:17.253Z,1.40
2024-04-23T08:38:44.581Z,1.60
2024-04-23T08:41:15.788Z,1.40
2024-04-23T08:43:47.695Z,1.65
2024-04-23T08:46:17.893Z,1.40
2024-04-23T08:48:46.236Z,1.40
2024-04-23T08:51:14.268Z,1.47
2024-04-23T08:53:42.462Z,1.20
2024-04-23T08:56:13.621Z,1.45
2024-04-23T08:58:42.120Z,1.60
2024-04-23T09:01:10.301Z,1.27
2024-04-23T09:03:43.661Z,1.97
2024-04-23T09:06:11.298Z,2.25
2024-04-23T09:08:39.116Z,1.67
2024-04-23T09:11:07.002Z,1.70
2024-04-23T09:13:34.267Z,1.80
2024-04-23T09:16:02.053Z,1.80
2024-04-23T09:18:29.393Z,2.10
2024-04-23T09:21:01.625Z,2.15
2024-04-23T09:23:38.706Z,1.52
2024-04-23T09:26:06.657Z,1.73
2024-04-23T09:28:37.586Z,2.00
2024-04-23T09:31:05.136Z,1.70
2024-04-23T09:33:37.897Z,2.13
2024-04-23T09:36:12.114Z,1.70
2024-04-23T09:38:44.609Z,2.13
2024-04-23T09:41:12.295Z,1.83
2024-04-23T09:43:39.794Z,2.67
2024-04-23T09:46:11.205Z,2.90
2024-04-23T09:48:41.867Z,3.15
2024-04-23T09:51:19.032Z,2.55
2024-04-23T09:53:47.940Z,2.73
2024-04-23T09:56:19.712Z,3.20
2024-04-23T09:58:47.520Z,3.40
2024-04-23T10:01:19.539Z,2.70
2024-04-23T10:03:52.153Z,2.38
2024-04-23T10:06:24.740Z,2.47
2024-04-23T10:08:53.551Z,2.20
2024-04-23T10:11:23.973Z,1.73
2024-04-23T10:13:52.741Z,2.03
2024-04-23T10:16:24.993Z,1.92
2024-04-23T10:18:56.010Z,1.73
2024-04-23T10:21:27.458Z,2.30
2024-04-23T10:23:55.676Z,1.85
2024-04-23T10:26:23.629Z,2.22
2024-04-23T10:28:51.584Z,1.98
2024-04-23T10:31:19.307Z,3.40
2024-04-23T10:33:48.358Z,2.65
2024-04-23T10:36:15.682Z,2.75
2024-04-23T10:38:47.279Z,2.25
2024-04-23T10:41:14.773Z,2.60
2024-04-23T10:43:42.236Z,2.63
2024-04-23T10:46:09.711Z,2.33
2024-04-23T10:48:39.366Z,2.20
2024-04-23T10:51:07.578Z,2.22
2024-04-23T10:53:34.817Z,2.03
2024-04-23T10:56:04.803Z,2.20
2024-04-23T10:58:36.102Z,1.55
2024-04-23T11:01:03.853Z,2.60
2024-04-23T11:03:32.115Z,2.05
2024-04-23T11:06:02.563Z,1.88
2024-04-23T11:08:30.265Z,2.43
2024-04-23T11:11:06.948Z,2.85
2024-04-23T11:13:57.484Z,2.15
2024-04-23T11:16:24.797Z,2.40
2024-04-23T11:18:54.587Z,2.25
2024-04-23T11:21:25.797Z,1.97
2024-04-23T11:23:53.494Z,5.05
2024-04-23T11:26:24.488Z,2.35
2024-04-23T11:28:51.932Z,3.03
2024-04-23T11:31:20.835Z,1.90
2024-04-23T11:33:49.394Z,2.40
2024-04-23T11:36:25.136Z,2.15
2024-04-23T11:38:55.701Z,2.45
2024-04-23T11:41:25.737Z,2.40
2024-04-23T11:43:53.314Z,2.10
2024-04-23T11:46:20.894Z,1.80
2024-04-23T11:48:48.256Z,1.67
2024-04-23T11:51:15.819Z,1.90
2024-04-23T11:53:43.453Z,2.15
2024-04-23T11:56:10.955Z,1.73
2024-04-23T11:58:42.399Z,1.53
2024-04-23T12:01:10.995Z,1.58
2024-04-23T12:03:53.965Z,1.63
2024-04-23T12:06:22.671Z,1.85
2024-04-23T12:08:49.927Z,1.90
2024-04-23T12:11:17.479Z,1.60
2024-04-23T12:13:50.350Z,1.75
2024-04-23T12:16:17.857Z,4.00
2024-04-23T12:18:45.614Z,2.30
2024-04-23T12:21:17.994Z,2.40
2024-04-23T12:23:45.313Z,2.20
2024-04-23T12:26:15.299Z,2.17
2024-04-23T12:28:42.607Z,1.80
2024-04-23T12:31:13.257Z,1.90
2024-04-23T12:33:40.465Z,1.95
2024-04-23T12:36:09.998Z,1.53
2024-04-23T12:38:43.695Z,2.55
2024-04-23T12:41:12.014Z,2.13
2024-04-23T12:43:40.163Z,2.00
2024-04-23T12:46:07.562Z,1.52
2024-04-23T12:48:39.267Z,1.70
2024-04-23T12:51:06.838Z,1.95
2024-04-23T12:53:34.101Z,2.05
2024-04-23T12:56:01.347Z,2.47
2024-04-23T12:58:30.092Z,1.75
2024-04-23T13:00:57.559Z,1.60
2024-04-23T13:03:26.147Z,2.50
2024-04-23T13:05:56.188Z,1.73
2024-04-23T13:08:24.752Z,1.65
2024-04-23T13:10:56.027Z,2.42
2024-04-23T13:13:23.174Z,1.97
2024-04-23T13:15:50.534Z,2.13
2024-04-23T13:18:17.746Z,1.88
2024-04-23T13:20:44.963Z,2.38
2024-04-23T13:23:15.324Z,2.42
2024-04-23T13:25:44.077Z,1.80
2024-04-23T13:28:11.213Z,1.73
2024-04-23T13:30:38.898Z,2.20
2024-04-23T13:33:06.142Z,2.20
2024-04-23T13:35:33.271Z,3.42
2024-04-23T13:38:00.500Z,2.60
2024-04-23T13:40:30.899Z,2.60
2024-04-23T13:42:58.176Z,3.45
2024-04-23T13:45:26.697Z,3.83
2024-04-23T13:47:54.372Z,3.05
2024-04-23T13:50:21.583Z,2.90
2024-04-23T13:52:48.915Z,2.92
2024-04-23T13:55:16.343Z,2.88
2024-04-23T13:57:46.177Z,3.20
2024-04-23T14:00:14.595Z,2.30
2024-04-23T14:02:42.183Z,2.37
2024-04-23T14:05:09.453Z,2.80
2024-04-23T14:07:37.067Z,2.90
2024-04-23T14:10:04.443Z,2.47
2024-04-23T14:12:32.501Z,3.15
2024-04-23T14:15:02.332Z,3.47
2024-04-23T14:17:30.942Z,3.17
2024-04-23T14:19:58.097Z,3.03
2024-04-23T14:22:25.289Z,3.13
2024-04-23T14:24:53.822Z,3.47
2024-04-23T14:27:20.945Z,3.73
2024-04-23T14:29:48.140Z,4.43
2024-04-23T14:32:22.992Z,5.25
2024-04-23T14:34:50.906Z,5.80
2024-04-23T14:37:21.430Z,5.00
2024-04-23T14:39:48.877Z,4.47
2024-04-23T14:42:16.042Z,3.20
2024-04-23T14:44:43.276Z,3.08
2024-04-23T14:47:10.589Z,2.85
2024-04-23T14:49:40.771Z,3.05
2024-04-23T14:52:08.012Z,2.50
2024-04-23T14:54:35.132Z,2.40
2024-04-23T14:57:02.295Z,2.08
2024-04-23T14:59:29.432Z,2.20
2024-04-23T15:01:56.698Z,1.90
2024-04-23T15:04:24.240Z,2.03
2024-04-23T15:06:57.203Z,2.88
2024-04-23T15:09:24.607Z,3.88
2024-04-23T15:11:54.818Z,6.15
2024-04-23T15:14:22.697Z,6.35
2024-04-23T15:16:52.902Z,4.23
2024-04-23T15:19:20.070Z,3.38
2024-04-23T15:21:47.268Z,3.10
2024-04-23T15:24:17.932Z,2.60
2024-04-23T15:26:45.573Z,2.60
2024-04-23T15:29:13.333Z,3.20
2024-04-23T15:31:40.504Z,2.70
2024-04-23T15:34:07.810Z,1.48
2024-04-23T15:36:37.242Z,2.00
2024-04-23T15:39:05.321Z,1.40
2024-04-23T15:41:35.133Z,1.77
2024-04-23T15:44:02.347Z,3.55
2024-04-23T15:46:29.457Z,4.45
2024-04-23T15:48:57.995Z,3.47
2024-04-23T15:51:25.651Z,3.00
2024-04-23T15:53:53.351Z,2.90
2024-04-23T15:56:21.307Z,2.50
2024-04-23T15:58:51.211Z,2.50
2024-04-23T16:01:18.373Z,4.00
2024-04-23T16:03:47.159Z,2.50
2024-04-23T16:06:14.766Z,1.93
2024-04-23T16:08:42.687Z,1.80
2024-04-23T16:11:11.028Z,1.75
2024-04-23T16:13:39.586Z,1.98
2024-04-23T16:16:10.228Z,1.80
2024-04-23T16:18:38.307Z,1.30
2024-04-23T16:21:09.194Z,1.88
2024-04-23T16:23:37.484Z,1.98
2024-04-23T16:26:08.106Z,1.80
2024-04-23T16:28:35.438Z,1.70
2024-04-23T16:31:02.823Z,2.07
2024-04-23T16:33:33.072Z,1.45
2024-04-23T16:36:01.393Z,1.20
2024-04-23T16:38:28.954Z,2.05
2024-04-23T16:40:59.054Z,1.50
2024-04-23T16:43:26.355Z,1.70
2024-04-23T16:45:53.797Z,2.70
2024-04-23T16:48:22.251Z,1.77
2024-04-23T16:50:52.377Z,1.70
2024-04-23T16:53:19.594Z,2.33
2024-04-23T16:55:46.907Z,1.50
2024-04-23T16:58:14.609Z,2.22
2024-04-23T17:00:42.072Z,1.42
2024-04-23T17:03:09.494Z,1.45
2024-04-23T17:05:36.710Z,1.48
2024-04-23T17:08:07.183Z,1.20
2024-04-23T17:10:34.398Z,1.40
2024-04-23T17:13:01.510Z,2.20
2024-04-23T17:15:29.055Z,2.22
2024-04-23T17:17:56.348Z,1.55
2024-04-23T17:20:23.584Z,1.67
2024-04-23T17:22:51.237Z,1.33
2024-04-23T17:25:21.322Z,1.83
2024-04-23T17:27:48.588Z,2.20
2024-04-23T17:30:17.064Z,1.27
2024-04-23T17:32:44.294Z,2.03
2024-04-23T17:35:12.244Z,2.35
2024-04-23T17:37:41.322Z,1.33
2024-04-23T17:40:09.242Z,2.03
2024-04-23T17:42:39.664Z,2.08
2024-04-23T17:45:07.510Z,1.60
2024-04-23T17:47:38.075Z,1.15
2024-04-23T17:50:09.809Z,1.73
2024-04-23T17:52:37.126Z,2.50
2024-04-23T17:55:05.933Z,2.45
2024-04-23T17:57:35.101Z,2.20
2024-04-23T18:00:08.231Z,2.70
2024-04-23T18:02:35.664Z,2.53
2024-04-23T18:05:05.523Z,1.88
2024-04-23T18:07:33.416Z,2.47
2024-04-23T18:10:01.123Z,3.63
2024-04-23T18:12:28.286Z,2.40
2024-04-23T18:14:55.419Z,2.95
2024-04-23T18:17:26.334Z,2.03
2024-04-23T18:19:53.910Z,2.17
2024-04-23T18:22:22.090Z,3.07
2024-04-23T18:24:50.643Z,2.20
2024-04-23T18:27:20.888Z,1.90
2024-04-23T18:29:48.768Z,2.20
2024-04-23T18:32:16.392Z,2.47
2024-04-23T18:34:46.841Z,2.80
2024-04-23T18:37:14.893Z,3.03
2024-04-23T18:39:42.438Z,2.65
2024-04-23T18:42:10.107Z,2.13
2024-04-23T18:44:37.863Z,2.35
2024-04-23T18:47:05.462Z,1.87
2024-04-23T18:49:32.612Z,4.65
2024-04-23T18:52:03.213Z,2.80
2024-04-23T18:54:32.665Z,2.85
2024-04-23T18:57:00.120Z,2.22
2024-04-23T18:59:27.669Z,2.77
2024-04-23T19:01:56.677Z,2.80
2024-04-23T19:04:24.155Z,3.15
2024-04-23T19:06:51.876Z,4.82
2024-04-23T19:09:23.317Z,4.03
2024-04-23T19:11:50.561Z,3.40
2024-04-23T19:14:18.278Z,3.97
2024-04-23T19:16:46.781Z,4.05
2024-04-23T19:19:14.062Z,3.95
2024-04-23T19:21:41.240Z,4.30
2024-04-23T19:24:08.474Z,4.07
2024-04-23T19:26:38.470Z,4.03
2024-04-23T19:29:05.754Z,3.55
2024-04-23T19:31:33.838Z,3.28
2024-04-23T19:34:02.289Z,4.80
2024-04-23T19:36:30.372Z,3.70
2024-04-23T19:38:57.811Z,3.58
2024-04-23T19:41:25.339Z,4.57
2024-04-23T19:43:55.744Z,4.32
2024-04-23T19:46:26.581Z,2.50
2024-04-23T19:48:56.945Z,3.90
2024-04-23T19:51:25.261Z,3.25
2024-04-23T19:53:52.691Z,3.42
2024-04-23T19:56:43.762Z,2.17
2024-04-23T19:59:13.909Z,2.63
2024-04-23T20:01:42.290Z,3.17
2024-04-23T20:04:10.301Z,3.95
2024-04-23T20:06:37.682Z,3.83
2024-04-23T20:09:05.326Z,3.92
2024-04-23T20:11:32.889Z,4.28
2024-04-23T20:14:00.459Z,3.40
2024-04-23T20:16:30.328Z,3.55
2024-04-23T20:18:57.912Z,3.10
2024-04-23T20:21:25.226Z,3.75
2024-04-23T20:23:56.374Z,4.03
2024-04-23T20:26:24.608Z,3.63
2024-04-23T20:28:54.075Z,3.88
2024-04-23T20:31:22.310Z,3.67
2024-04-23T20:33:52.589Z,3.50
2024-04-23T20:36:21.773Z,3.92
2024-04-23T20:38:49.305Z,3.17
2024-04-23T20:41:16.943Z,3.13
2024-04-23T20:43:44.407Z,4.25
2024-04-23T20:46:11.792Z,2.72
2024-04-23T20:48:39.181Z,3.97
2024-04-23T20:51:09.285Z,2.50
2024-04-23T20:53:36.386Z,2.65
2024-04-23T20:56:05.177Z,3.38
2024-04-23T20:58:32.292Z,2.72
2024-04-23T21:01:05.197Z,3.67
2024-04-23T21:03:32.335Z,3.20
2024-04-23T21:05:59.583Z,3.50
2024-04-23T21:08:29.630Z,2.00
2024-04-23T21:10:56.940Z,3.05
2024-04-23T21:13:28.151Z,2.47
2024-04-23T21:15:57.629Z,2.47
2024-04-23T21:18:24.800Z,2.88
2024-04-23T21:20:51.911Z,2.33
2024-04-23T21:23:19.122Z,2.35
2024-04-23T21:25:49.030Z,3.63
2024-04-23T21:28:16.199Z,1.63
2024-04-23T21:30:43.433Z,3.53
2024-04-23T21:33:10.752Z,2.58
2024-04-23T21:35:37.968Z,2.53
2024-04-23T21:38:05.339Z,2.17
2024-04-23T21:40:32.763Z,3.07
2024-04-23T21:43:02.574Z,3.78
2024-04-23T21:45:31.130Z,3.53
2024-04-23T21:47:58.490Z,3.10
2024-04-23T21:50:25.758Z,3.13
2024-04-23T21:52:53.920Z,3.33
2024-04-23T21:55:21.108Z,3.40
2024-04-23T21:57:48.230Z,3.58
2024-04-23T22:00:18.113Z,4.07
2024-04-23T22:02:45.473Z,3.35
2024-04-23T22:05:13.071Z,3.73
2024-04-23T22:07:42.982Z,4.40
2024-04-23T22:10:10.148Z,3.17
2024-04-23T22:12:37.317Z,2.25
2024-04-23T22:15:05.347Z,4.20
2024-04-23T22:17:35.308Z,3.23
2024-04-23T22:20:02.644Z,3.55
2024-04-23T22:22:29.866Z,4.30
2024-04-23T22:24:56.962Z,2.80
2024-04-23T22:27:24.092Z,2.53
2024-04-23T22:29:51.221Z,4.00
2024-04-23T22:32:18.419Z,4.38
2024-04-23T22:34:48.300Z,4.07
2024-04-23T22:37:15.504Z,3.80
2024-04-23T22:39:42.897Z,3.83
2024-04-23T22:42:10.055Z,4.20
2024-04-23T22:44:37.231Z,6.90
2024-04-23T22:47:04.390Z,5.93
2024-04-23T22:49:31.716Z,6.68
2024-04-23T22:52:01.559Z,5.00
2024-04-23T22:54:28.645Z,3.63
2024-04-23T22:56:55.788Z,4.53
2024-04-23T22:59:23.730Z,5.93
2024-04-23T23:01:50.850Z,4.90
2024-04-23T23:04:17.964Z,6.47
2024-04-23T23:06:45.083Z,5.87
2024-04-23T23:09:15.312Z,3.10
2024-04-23T23:11:42.578Z,3.13
2024-04-23T23:14:09.893Z,4.88
2024-04-23T23:16:36.999Z,5.60
2024-04-23T23:19:04.239Z,5.67
2024-04-23T23:21:31.355Z,6.43
2024-04-23T23:23:58.529Z,5.05
2024-04-23T23:26:28.316Z,4.30
2024-04-23T23:28:55.474Z,4.22
2024-04-23T23:31:22.578Z,4.82
2024-04-23T23:33:49.755Z,2.45
2024-04-23T23:36:16.925Z,4.43
2024-04-23T23:38:44.098Z,3.53
2024-04-23T23:41:11.393Z,3.60
2024-04-23T23:43:41.218Z,4.07
2024-04-23T23:46:08.330Z,4.43
2024-04-23T23:48:35.487Z,5.28
2024-04-23T23:51:02.846Z,2.83
2024-04-23T23:53:29.981Z,5.03
2024-04-23T23:55:57.135Z,3.03
2024-04-23T23:58:24.240Z,3.05
